sensor_id;sensor_type;location;lat;lon;timestamp;P1;durP1;ratioP1;P2;durP2;ratioP2
51764;SDS011;37835;53.256;6.456;2023-02-18T00:00:14;25.67;;;3.30;;
51764;SDS011;37835;53.256;6.456;2023-02-18T00:02:42;23.27;;;3.15;;
51764;SDS011;37835;53.256;6.456;2023-02-18T00:05:09;21.08;;;3.13;;
51764;SDS011;37835;53.256;6.456;2023-02-18T00:07:35;19.35;;;2.95;;
51764;SDS011;37835;53.256;6.456;2023-02-18T00:10:02;20.27;;;2.67;;
51764;SDS011;37835;53.256;6.456;2023-02-18T00:12:30;21.13;;;2.95;;
51764;SDS011;37835;53.256;6.456;2023-02-18T00:14:56;19.45;;;2.80;;
51764;SDS011;37835;53.256;6.456;2023-02-18T00:17:22;17.20;;;2.38;;
51764;SDS011;37835;53.256;6.456;2023-02-18T00:19:48;15.57;;;2.42;;
51764;SDS011;37835;53.256;6.456;2023-02-18T00:22:13;21.80;;;2.95;;
51764;SDS011;37835;53.256;6.456;2023-02-18T00:24:39;17.00;;;2.80;;
51764;SDS011;37835;53.256;6.456;2023-02-18T00:27:05;21.55;;;3.03;;
51764;SDS011;37835;53.256;6.456;2023-02-18T00:29:31;24.40;;;2.65;;
51764;SDS011;37835;53.256;6.456;2023-02-18T00:31:57;18.05;;;3.00;;
51764;SDS011;37835;53.256;6.456;2023-02-18T00:34:22;15.60;;;2.20;;
51764;SDS011;37835;53.256;6.456;2023-02-18T00:36:48;18.80;;;3.13;;
51764;SDS011;37835;53.256;6.456;2023-02-18T00:39:14;19.50;;;2.38;;
51764;SDS011;37835;53.256;6.456;2023-02-18T00:41:39;16.45;;;2.63;;
51764;SDS011;37835;53.256;6.456;2023-02-18T00:44:05;31.38;;;3.28;;
51764;SDS011;37835;53.256;6.456;2023-02-18T00:46:31;15.40;;;3.55;;
51764;SDS011;37835;53.256;6.456;2023-02-18T00:48:57;16.77;;;3.30;;
51764;SDS011;37835;53.256;6.456;2023-02-18T00:51:22;20.77;;;2.67;;
51764;SDS011;37835;53.256;6.456;2023-02-18T00:53:49;14.55;;;2.40;;
51764;SDS011;37835;53.256;6.456;2023-02-18T00:56:15;22.92;;;2.85;;
51764;SDS011;37835;53.256;6.456;2023-02-18T00:58:41;15.05;;;2.83;;
51764;SDS011;37835;53.256;6.456;2023-02-18T01:01:07;19.13;;;3.38;;
51764;SDS011;37835;53.256;6.456;2023-02-18T01:03:34;20.15;;;3.47;;
51764;SDS011;37835;53.256;6.456;2023-02-18T01:06:00;20.92;;;3.22;;
51764;SDS011;37835;53.256;6.456;2023-02-18T01:08:26;20.63;;;3.03;;
51764;SDS011;37835;53.256;6.456;2023-02-18T01:10:52;14.77;;;3.05;;
51764;SDS011;37835;53.256;6.456;2023-02-18T01:13:20;21.80;;;3.10;;
51764;SDS011;37835;53.256;6.456;2023-02-18T01:15:46;21.20;;;2.97;;
51764;SDS011;37835;53.256;6.456;2023-02-18T01:18:12;15.93;;;2.60;;
51764;SDS011;37835;53.256;6.456;2023-02-18T01:20:39;17.08;;;3.08;;
51764;SDS011;37835;53.256;6.456;2023-02-18T01:23:06;21.13;;;3.20;;
51764;SDS011;37835;53.256;6.456;2023-02-18T01:25:31;17.50;;;3.58;;
51764;SDS011;37835;53.256;6.456;2023-02-18T01:27:58;21.95;;;3.85;;
51764;SDS011;37835;53.256;6.456;2023-02-18T01:30:23;24.02;;;3.53;;
51764;SDS011;37835;53.256;6.456;2023-02-18T01:32:49;18.02;;;2.90;;
51764;SDS011;37835;53.256;6.456;2023-02-18T01:35:15;14.80;;;3.20;;
51764;SDS011;37835;53.256;6.456;2023-02-18T01:37:42;16.25;;;3.20;;
51764;SDS011;37835;53.256;6.456;2023-02-18T01:40:10;21.30;;;3.60;;
51764;SDS011;37835;53.256;6.456;2023-02-18T01:42:38;22.38;;;3.28;;
51764;SDS011;37835;53.256;6.456;2023-02-18T01:48:20;15.68;;;3.30;;
51764;SDS011;37835;53.256;6.456;2023-02-18T01:50:50;15.98;;;2.95;;
51764;SDS011;37835;53.256;6.456;2023-02-18T01:53:29;16.17;;;3.10;;
51764;SDS011;37835;53.256;6.456;2023-02-18T01:56:19;15.73;;;3.40;;
51764;SDS011;37835;53.256;6.456;2023-02-18T01:58:57;17.48;;;3.00;;
51764;SDS011;37835;53.256;6.456;2023-02-18T02:01:25;14.88;;;3.35;;
51764;SDS011;37835;53.256;6.456;2023-02-18T02:03:51;18.55;;;3.20;;
51764;SDS011;37835;53.256;6.456;2023-02-18T02:06:19;18.52;;;4.40;;
51764;SDS011;37835;53.256;6.456;2023-02-18T02:08:46;19.00;;;3.63;;
51764;SDS011;37835;53.256;6.456;2023-02-18T02:13:52;22.33;;;4.32;;
51764;SDS011;37835;53.256;6.456;2023-02-18T02:16:31;19.08;;;3.65;;
51764;SDS011;37835;53.256;6.456;2023-02-18T02:19:13;20.27;;;3.50;;
51764;SDS011;37835;53.256;6.456;2023-02-18T02:25:07;14.70;;;3.42;;
51764;SDS011;37835;53.256;6.456;2023-02-18T02:27:39;20.55;;;3.75;;
51764;SDS011;37835;53.256;6.456;2023-02-18T02:46:50;19.80;;;4.18;;
51764;SDS011;37835;53.256;6.456;2023-02-18T02:51:59;19.02;;;4.05;;
51764;SDS011;37835;53.256;6.456;2023-02-18T02:54:28;19.50;;;4.18;;
51764;SDS011;37835;53.256;6.456;2023-02-18T02:57:03;15.20;;;3.22;;
51764;SDS011;37835;53.256;6.456;2023-02-18T02:59:54;18.48;;;3.38;;
51764;SDS011;37835;53.256;6.456;2023-02-18T03:02:32;20.42;;;4.38;;
51764;SDS011;37835;53.256;6.456;2023-02-18T03:08:13;16.45;;;3.83;;
51764;SDS011;37835;53.256;6.456;2023-02-18T03:10:56;16.08;;;3.97;;
51764;SDS011;37835;53.256;6.456;2023-02-18T03:16:27;17.15;;;3.85;;
51764;SDS011;37835;53.256;6.456;2023-02-18T03:19:13;23.38;;;3.83;;
51764;SDS011;37835;53.256;6.456;2023-02-18T03:21:52;20.33;;;4.70;;
51764;SDS011;37835;53.256;6.456;2023-02-18T03:24:29;11.85;;;3.90;;
51764;SDS011;37835;53.256;6.456;2023-02-18T03:30:20;20.60;;;4.30;;
51764;SDS011;37835;53.256;6.456;2023-02-18T03:32:44;16.83;;;4.18;;
51764;SDS011;37835;53.256;6.456;2023-02-18T03:35:14;15.18;;;3.72;;
51764;SDS011;37835;53.256;6.456;2023-02-18T03:37:44;20.75;;;4.47;;
51764;SDS011;37835;53.256;6.456;2023-02-18T03:40:15;24.77;;;4.28;;
51764;SDS011;37835;53.256;6.456;2023-02-18T03:42:41;17.52;;;3.83;;
51764;SDS011;37835;53.256;6.456;2023-02-18T03:45:07;25.45;;;5.03;;
51764;SDS011;37835;53.256;6.456;2023-02-18T03:47:33;19.58;;;4.60;;
51764;SDS011;37835;53.256;6.456;2023-02-18T03:49:58;17.27;;;4.90;;
51764;SDS011;37835;53.256;6.456;2023-02-18T03:52:24;18.90;;;4.45;;
51764;SDS011;37835;53.256;6.456;2023-02-18T03:54:50;20.80;;;4.75;;
51764;SDS011;37835;53.256;6.456;2023-02-18T03:57:15;17.25;;;4.10;;
51764;SDS011;37835;53.256;6.456;2023-02-18T03:59:41;19.83;;;4.75;;
51764;SDS011;37835;53.256;6.456;2023-02-18T04:02:06;17.38;;;4.43;;
51764;SDS011;37835;53.256;6.456;2023-02-18T04:04:32;20.33;;;4.18;;
51764;SDS011;37835;53.256;6.456;2023-02-18T04:06:57;13.23;;;4.05;;
51764;SDS011;37835;53.256;6.456;2023-02-18T04:09:23;16.83;;;4.38;;
51764;SDS011;37835;53.256;6.456;2023-02-18T04:11:48;20.08;;;4.30;;
51764;SDS011;37835;53.256;6.456;2023-02-18T04:14:14;18.05;;;4.20;;
51764;SDS011;37835;53.256;6.456;2023-02-18T04:16:40;12.25;;;4.05;;
51764;SDS011;37835;53.256;6.456;2023-02-18T04:19:06;15.30;;;4.28;;
51764;SDS011;37835;53.256;6.456;2023-02-18T04:21:32;12.18;;;3.92;;
51764;SDS011;37835;53.256;6.456;2023-02-18T04:23:58;14.48;;;3.92;;
51764;SDS011;37835;53.256;6.456;2023-02-18T04:26:24;15.60;;;4.22;;
51764;SDS011;37835;53.256;6.456;2023-02-18T04:28:50;18.63;;;4.10;;
51764;SDS011;37835;53.256;6.456;2023-02-18T04:31:16;13.70;;;3.38;;
51764;SDS011;37835;53.256;6.456;2023-02-18T04:33:42;9.63;;;3.70;;
51764;SDS011;37835;53.256;6.456;2023-02-18T04:36:08;19.90;;;4.60;;
51764;SDS011;37835;53.256;6.456;2023-02-18T04:38:34;11.95;;;4.22;;
51764;SDS011;37835;53.256;6.456;2023-02-18T04:40:59;11.40;;;3.88;;
51764;SDS011;37835;53.256;6.456;2023-02-18T04:43:25;14.13;;;4.15;;
51764;SDS011;37835;53.256;6.456;2023-02-18T04:45:50;21.67;;;4.68;;
51764;SDS011;37835;53.256;6.456;2023-02-18T04:48:16;18.15;;;5.22;;
51764;SDS011;37835;53.256;6.456;2023-02-18T04:50:42;16.20;;;5.78;;
51764;SDS011;37835;53.256;6.456;2023-02-18T04:53:08;19.42;;;6.18;;
51764;SDS011;37835;53.256;6.456;2023-02-18T04:55:34;22.77;;;7.90;;
51764;SDS011;37835;53.256;6.456;2023-02-18T04:57:59;22.27;;;7.43;;
51764;SDS011;37835;53.256;6.456;2023-02-18T05:00:25;20.65;;;8.02;;
51764;SDS011;37835;53.256;6.456;2023-02-18T05:02:52;24.33;;;9.38;;
51764;SDS011;37835;53.256;6.456;2023-02-18T05:05:18;30.23;;;10.48;;
51764;SDS011;37835;53.256;6.456;2023-02-18T05:07:43;29.33;;;11.25;;
51764;SDS011;37835;53.256;6.456;2023-02-18T05:10:10;31.30;;;13.02;;
51764;SDS011;37835;53.256;6.456;2023-02-18T05:12:39;28.13;;;13.82;;
51764;SDS011;37835;53.256;6.456;2023-02-18T05:15:04;36.15;;;15.43;;
51764;SDS011;37835;53.256;6.456;2023-02-18T05:17:30;33.20;;;15.77;;
51764;SDS011;37835;53.256;6.456;2023-02-18T05:19:56;40.45;;;17.73;;
51764;SDS011;37835;53.256;6.456;2023-02-18T05:22:22;36.95;;;18.23;;
51764;SDS011;37835;53.256;6.456;2023-02-18T05:24:48;39.05;;;18.73;;
51764;SDS011;37835;53.256;6.456;2023-02-18T05:27:13;36.50;;;19.63;;
51764;SDS011;37835;53.256;6.456;2023-02-18T05:29:39;48.47;;;20.27;;
51764;SDS011;37835;53.256;6.456;2023-02-18T05:32:04;49.13;;;22.65;;
51764;SDS011;37835;53.256;6.456;2023-02-18T05:34:30;48.92;;;24.02;;
51764;SDS011;37835;53.256;6.456;2023-02-18T05:36:55;47.50;;;24.35;;
51764;SDS011;37835;53.256;6.456;2023-02-18T05:39:21;52.25;;;25.40;;
51764;SDS011;37835;53.256;6.456;2023-02-18T05:41:46;52.47;;;25.33;;
51764;SDS011;37835;53.256;6.456;2023-02-18T05:44:12;52.95;;;26.63;;
51764;SDS011;37835;53.256;6.456;2023-02-18T05:47:03;56.30;;;26.95;;
51764;SDS011;37835;53.256;6.456;2023-02-18T05:49:32;50.22;;;25.92;;
51764;SDS011;37835;53.256;6.456;2023-02-18T05:51:59;47.08;;;25.25;;
51764;SDS011;37835;53.256;6.456;2023-02-18T05:54:25;46.45;;;24.73;;
51764;SDS011;37835;53.256;6.456;2023-02-18T05:56:51;48.65;;;24.80;;
51764;SDS011;37835;53.256;6.456;2023-02-18T05:59:17;42.85;;;23.50;;
51764;SDS011;37835;53.256;6.456;2023-02-18T06:01:43;38.47;;;22.02;;
51764;SDS011;37835;53.256;6.456;2023-02-18T06:04:09;39.35;;;20.77;;
51764;SDS011;37835;53.256;6.456;2023-02-18T06:06:35;39.53;;;22.23;;
51764;SDS011;37835;53.256;6.456;2023-02-18T06:09:01;41.25;;;21.02;;
51764;SDS011;37835;53.256;6.456;2023-02-18T06:11:27;41.40;;;20.52;;
51764;SDS011;37835;53.256;6.456;2023-02-18T06:13:52;38.85;;;20.42;;
51764;SDS011;37835;53.256;6.456;2023-02-18T06:16:18;35.25;;;19.13;;
51764;SDS011;37835;53.256;6.456;2023-02-18T06:18:43;32.78;;;17.95;;
51764;SDS011;37835;53.256;6.456;2023-02-18T06:21:09;34.17;;;17.98;;
51764;SDS011;37835;53.256;6.456;2023-02-18T06:23:35;33.78;;;16.92;;
51764;SDS011;37835;53.256;6.456;2023-02-18T06:26:00;29.73;;;16.00;;
51764;SDS011;37835;53.256;6.456;2023-02-18T06:28:26;29.45;;;15.55;;
51764;SDS011;37835;53.256;6.456;2023-02-18T06:30:51;27.33;;;14.55;;
51764;SDS011;37835;53.256;6.456;2023-02-18T06:33:17;28.75;;;14.10;;
51764;SDS011;37835;53.256;6.456;2023-02-18T06:35:51;27.15;;;13.82;;
51764;SDS011;37835;53.256;6.456;2023-02-18T06:38:18;28.25;;;13.85;;
51764;SDS011;37835;53.256;6.456;2023-02-18T06:40:45;22.20;;;12.52;;
51764;SDS011;37835;53.256;6.456;2023-02-18T06:43:11;23.65;;;12.90;;
51764;SDS011;37835;53.256;6.456;2023-02-18T06:45:37;21.88;;;12.00;;
51764;SDS011;37835;53.256;6.456;2023-02-18T06:48:03;22.75;;;11.90;;
51764;SDS011;37835;53.256;6.456;2023-02-18T06:50:29;20.35;;;11.85;;
51764;SDS011;37835;53.256;6.456;2023-02-18T06:52:54;21.45;;;11.68;;
51764;SDS011;37835;53.256;6.456;2023-02-18T06:55:20;22.00;;;11.60;;
51764;SDS011;37835;53.256;6.456;2023-02-18T06:57:46;21.48;;;11.88;;
51764;SDS011;37835;53.256;6.456;2023-02-18T07:00:11;21.02;;;12.70;;
51764;SDS011;37835;53.256;6.456;2023-02-18T07:02:37;24.10;;;12.75;;
51764;SDS011;37835;53.256;6.456;2023-02-18T07:05:03;28.33;;;15.57;;
51764;SDS011;37835;53.256;6.456;2023-02-18T07:07:29;30.88;;;17.05;;
51764;SDS011;37835;53.256;6.456;2023-02-18T07:09:54;35.72;;;18.60;;
51764;SDS011;37835;53.256;6.456;2023-02-18T07:12:20;34.03;;;18.55;;
51764;SDS011;37835;53.256;6.456;2023-02-18T07:14:46;38.35;;;20.20;;
51764;SDS011;37835;53.256;6.456;2023-02-18T07:17:11;46.35;;;21.20;;
51764;SDS011;37835;53.256;6.456;2023-02-18T07:19:38;35.88;;;21.15;;
51764;SDS011;37835;53.256;6.456;2023-02-18T07:22:03;38.50;;;20.02;;
51764;SDS011;37835;53.256;6.456;2023-02-18T07:24:29;44.67;;;21.55;;
51764;SDS011;37835;53.256;6.456;2023-02-18T07:26:54;40.90;;;20.10;;
51764;SDS011;37835;53.256;6.456;2023-02-18T07:29:20;41.38;;;19.67;;
51764;SDS011;37835;53.256;6.456;2023-02-18T07:31:45;36.33;;;19.30;;
51764;SDS011;37835;53.256;6.456;2023-02-18T07:34:11;36.45;;;17.58;;
51764;SDS011;37835;53.256;6.456;2023-02-18T07:36:36;29.70;;;16.55;;
51764;SDS011;37835;53.256;6.456;2023-02-18T07:39:02;29.92;;;16.52;;
51764;SDS011;37835;53.256;6.456;2023-02-18T07:41:28;26.38;;;14.80;;
51764;SDS011;37835;53.256;6.456;2023-02-18T07:43:53;26.63;;;15.60;;
51764;SDS011;37835;53.256;6.456;2023-02-18T07:46:19;26.10;;;14.43;;
51764;SDS011;37835;53.256;6.456;2023-02-18T07:48:45;28.95;;;14.68;;
51764;SDS011;37835;53.256;6.456;2023-02-18T07:51:11;28.02;;;14.23;;
51764;SDS011;37835;53.256;6.456;2023-02-18T07:53:37;26.58;;;13.20;;
51764;SDS011;37835;53.256;6.456;2023-02-18T07:56:03;23.05;;;12.23;;
51764;SDS011;37835;53.256;6.456;2023-02-18T07:58:30;25.08;;;12.60;;
51764;SDS011;37835;53.256;6.456;2023-02-18T08:00:57;25.55;;;11.98;;
51764;SDS011;37835;53.256;6.456;2023-02-18T08:03:25;21.95;;;11.40;;
51764;SDS011;37835;53.256;6.456;2023-02-18T08:05:52;21.15;;;10.77;;
51764;SDS011;37835;53.256;6.456;2023-02-18T08:08:20;21.90;;;11.20;;
51764;SDS011;37835;53.256;6.456;2023-02-18T08:10:48;21.63;;;10.80;;
51764;SDS011;37835;53.256;6.456;2023-02-18T08:13:14;22.45;;;10.27;;
51764;SDS011;37835;53.256;6.456;2023-02-18T08:15:40;21.50;;;9.90;;
51764;SDS011;37835;53.256;6.456;2023-02-18T08:18:06;21.70;;;9.73;;
51764;SDS011;37835;53.256;6.456;2023-02-18T08:20:38;19.30;;;9.13;;
51764;SDS011;37835;53.256;6.456;2023-02-18T08:23:04;16.55;;;8.07;;
51764;SDS011;37835;53.256;6.456;2023-02-18T08:25:30;20.83;;;6.97;;
51764;SDS011;37835;53.256;6.456;2023-02-18T08:27:56;17.15;;;7.55;;
51764;SDS011;37835;53.256;6.456;2023-02-18T08:30:22;21.77;;;7.47;;
51764;SDS011;37835;53.256;6.456;2023-02-18T08:32:48;15.85;;;6.18;;
51764;SDS011;37835;53.256;6.456;2023-02-18T08:35:14;17.15;;;6.22;;
51764;SDS011;37835;53.256;6.456;2023-02-18T08:37:39;15.05;;;5.50;;
51764;SDS011;37835;53.256;6.456;2023-02-18T08:40:05;16.17;;;4.28;;
51764;SDS011;37835;53.256;6.456;2023-02-18T08:42:32;9.65;;;3.95;;
51764;SDS011;37835;53.256;6.456;2023-02-18T08:44:57;14.05;;;4.13;;
51764;SDS011;37835;53.256;6.456;2023-02-18T08:47:23;17.92;;;4.38;;
51764;SDS011;37835;53.256;6.456;2023-02-18T08:49:49;14.95;;;3.90;;
51764;SDS011;37835;53.256;6.456;2023-02-18T08:52:14;12.75;;;3.67;;
51764;SDS011;37835;53.256;6.456;2023-02-18T08:54:40;15.52;;;3.92;;
51764;SDS011;37835;53.256;6.456;2023-02-18T08:57:05;17.52;;;3.33;;
51764;SDS011;37835;53.256;6.456;2023-02-18T08:59:31;13.77;;;3.50;;
51764;SDS011;37835;53.256;6.456;2023-02-18T09:01:56;10.32;;;3.17;;
51764;SDS011;37835;53.256;6.456;2023-02-18T09:04:22;12.23;;;2.90;;
51764;SDS011;37835;53.256;6.456;2023-02-18T09:06:48;9.02;;;3.70;;
51764;SDS011;37835;53.256;6.456;2023-02-18T09:09:14;10.60;;;3.10;;
51764;SDS011;37835;53.256;6.456;2023-02-18T09:11:40;13.18;;;3.22;;
51764;SDS011;37835;53.256;6.456;2023-02-18T09:14:06;13.10;;;3.28;;
51764;SDS011;37835;53.256;6.456;2023-02-18T09:16:32;15.48;;;3.55;;
51764;SDS011;37835;53.256;6.456;2023-02-18T09:18:57;15.05;;;3.85;;
51764;SDS011;37835;53.256;6.456;2023-02-18T09:21:23;15.02;;;3.50;;
51764;SDS011;37835;53.256;6.456;2023-02-18T09:23:49;10.65;;;3.25;;
51764;SDS011;37835;53.256;6.456;2023-02-18T09:26:15;14.73;;;3.03;;
51764;SDS011;37835;53.256;6.456;2023-02-18T09:28:42;16.83;;;3.60;;
51764;SDS011;37835;53.256;6.456;2023-02-18T09:31:09;16.08;;;3.40;;
51764;SDS011;37835;53.256;6.456;2023-02-18T09:33:49;15.35;;;3.63;;
51764;SDS011;37835;53.256;6.456;2023-02-18T09:36:16;15.18;;;4.22;;
51764;SDS011;37835;53.256;6.456;2023-02-18T09:38:43;14.27;;;3.00;;
51764;SDS011;37835;53.256;6.456;2023-02-18T09:41:14;12.15;;;2.83;;
51764;SDS011;37835;53.256;6.456;2023-02-18T09:43:57;12.43;;;3.05;;
51764;SDS011;37835;53.256;6.456;2023-02-18T09:46:33;16.52;;;3.28;;
51764;SDS011;37835;53.256;6.456;2023-02-18T09:49:03;12.30;;;2.60;;
51764;SDS011;37835;53.256;6.456;2023-02-18T09:51:32;13.88;;;3.47;;
51764;SDS011;37835;53.256;6.456;2023-02-18T09:53:57;11.85;;;2.78;;
51764;SDS011;37835;53.256;6.456;2023-02-18T09:56:27;22.20;;;4.18;;
51764;SDS011;37835;53.256;6.456;2023-02-18T09:58:56;22.90;;;3.75;;
51764;SDS011;37835;53.256;6.456;2023-02-18T10:01:45;16.02;;;4.07;;
51764;SDS011;37835;53.256;6.456;2023-02-18T10:04:18;18.70;;;3.40;;
51764;SDS011;37835;53.256;6.456;2023-02-18T10:06:48;18.95;;;3.70;;
51764;SDS011;37835;53.256;6.456;2023-02-18T10:11:53;20.67;;;3.33;;
51764;SDS011;37835;53.256;6.456;2023-02-18T10:14:21;21.80;;;3.28;;
51764;SDS011;37835;53.256;6.456;2023-02-18T10:16:47;16.70;;;3.53;;
51764;SDS011;37835;53.256;6.456;2023-02-18T10:21:48;21.95;;;3.65;;
51764;SDS011;37835;53.256;6.456;2023-02-18T10:26:40;21.70;;;3.40;;
51764;SDS011;37835;53.256;6.456;2023-02-18T10:29:15;15.00;;;2.63;;
51764;SDS011;37835;53.256;6.456;2023-02-18T10:31:43;22.33;;;4.00;;
51764;SDS011;37835;53.256;6.456;2023-02-18T10:34:22;18.65;;;3.17;;
51764;SDS011;37835;53.256;6.456;2023-02-18T10:37:04;14.70;;;2.55;;
51764;SDS011;37835;53.256;6.456;2023-02-18T10:45:17;20.33;;;2.80;;
51764;SDS011;37835;53.256;6.456;2023-02-18T10:47:52;17.63;;;3.92;;
51764;SDS011;37835;53.256;6.456;2023-02-18T10:50:46;19.95;;;3.25;;
51764;SDS011;37835;53.256;6.456;2023-02-18T10:53:17;26.08;;;3.80;;
51764;SDS011;37835;53.256;6.456;2023-02-18T10:55:57;19.13;;;3.45;;
51764;SDS011;37835;53.256;6.456;2023-02-18T10:58:27;19.63;;;3.35;;
51764;SDS011;37835;53.256;6.456;2023-02-18T11:00:58;14.20;;;2.65;;
51764;SDS011;37835;53.256;6.456;2023-02-18T11:06:15;19.23;;;3.10;;
51764;SDS011;37835;53.256;6.456;2023-02-18T11:08:55;15.95;;;3.15;;
51764;SDS011;37835;53.256;6.456;2023-02-18T11:11:23;19.13;;;3.47;;
51764;SDS011;37835;53.256;6.456;2023-02-18T11:13:54;24.30;;;3.53;;
51764;SDS011;37835;53.256;6.456;2023-02-18T11:16:22;16.52;;;3.13;;
51764;SDS011;37835;53.256;6.456;2023-02-18T11:18:59;12.35;;;2.85;;
51764;SDS011;37835;53.256;6.456;2023-02-18T11:21:35;22.30;;;3.55;;
51764;SDS011;37835;53.256;6.456;2023-02-18T11:24:09;17.48;;;3.55;;
51764;SDS011;37835;53.256;6.456;2023-02-18T11:26:40;20.10;;;3.60;;
51764;SDS011;37835;53.256;6.456;2023-02-18T11:29:12;22.13;;;4.20;;
51764;SDS011;37835;53.256;6.456;2023-02-18T11:31:51;20.02;;;3.20;;
51764;SDS011;37835;53.256;6.456;2023-02-18T11:36:53;18.92;;;2.83;;
51764;SDS011;37835;53.256;6.456;2023-02-18T11:39:23;21.55;;;3.35;;
51764;SDS011;37835;53.256;6.456;2023-02-18T11:41:58;23.40;;;4.35;;
51764;SDS011;37835;53.256;6.456;2023-02-18T11:44:37;14.73;;;2.85;;
51764;SDS011;37835;53.256;6.456;2023-02-18T11:49:38;18.55;;;3.13;;
51764;SDS011;37835;53.256;6.456;2023-02-18T11:52:24;18.58;;;3.25;;
51764;SDS011;37835;53.256;6.456;2023-02-18T11:55:02;24.20;;;4.35;;
51764;SDS011;37835;53.256;6.456;2023-02-18T11:57:29;25.60;;;4.55;;
51764;SDS011;37835;53.256;6.456;2023-02-18T11:59:56;20.42;;;3.50;;
51764;SDS011;37835;53.256;6.456;2023-02-18T12:02:29;20.92;;;3.30;;
51764;SDS011;37835;53.256;6.456;2023-02-18T12:05:00;16.58;;;3.30;;
51764;SDS011;37835;53.256;6.456;2023-02-18T12:07:57;15.15;;;3.08;;
51764;SDS011;37835;53.256;6.456;2023-02-18T12:10:48;16.00;;;2.85;;
51764;SDS011;37835;53.256;6.456;2023-02-18T12:24:15;15.20;;;2.55;;
51764;SDS011;37835;53.256;6.456;2023-02-18T12:40:36;14.32;;;3.45;;
51764;SDS011;37835;53.256;6.456;2023-02-18T13:02:17;13.10;;;2.42;;
51764;SDS011;37835;53.256;6.456;2023-02-18T13:05:06;17.10;;;2.83;;
51764;SDS011;37835;53.256;6.456;2023-02-18T13:10:38;15.88;;;2.47;;
51764;SDS011;37835;53.256;6.456;2023-02-18T13:13:30;18.42;;;2.58;;
51764;SDS011;37835;53.256;6.456;2023-02-18T13:16:00;16.00;;;2.90;;
51764;SDS011;37835;53.256;6.456;2023-02-18T13:18:34;15.65;;;2.67;;
51764;SDS011;37835;53.256;6.456;2023-02-18T13:21:19;12.80;;;2.50;;
51764;SDS011;37835;53.256;6.456;2023-02-18T13:23:54;15.77;;;2.60;;
51764;SDS011;37835;53.256;6.456;2023-02-18T13:26:23;19.08;;;2.78;;
51764;SDS011;37835;53.256;6.456;2023-02-18T13:28:58;15.40;;;2.97;;
51764;SDS011;37835;53.256;6.456;2023-02-18T13:34:23;13.55;;;2.15;;
51764;SDS011;37835;53.256;6.456;2023-02-18T13:39:51;15.80;;;2.40;;
51764;SDS011;37835;53.256;6.456;2023-02-18T13:42:26;22.15;;;3.13;;
51764;SDS011;37835;53.256;6.456;2023-02-18T13:56:18;17.10;;;2.80;;
51764;SDS011;37835;53.256;6.456;2023-02-18T13:58:30;14.18;;;2.25;;
51764;SDS011;37835;53.256;6.456;2023-02-18T14:01:02;18.55;;;3.78;;
51764;SDS011;37835;53.256;6.456;2023-02-18T14:05:57;16.85;;;2.90;;
51764;SDS011;37835;53.256;6.456;2023-02-18T14:08:33;22.75;;;3.90;;
51764;SDS011;37835;53.256;6.456;2023-02-18T14:16:16;16.65;;;2.80;;
51764;SDS011;37835;53.256;6.456;2023-02-18T14:32:08;19.83;;;3.30;;
51764;SDS011;37835;53.256;6.456;2023-02-18T14:34:23;22.13;;;3.15;;
51764;SDS011;37835;53.256;6.456;2023-02-18T14:37:19;16.95;;;3.28;;
51764;SDS011;37835;53.256;6.456;2023-02-18T14:45:32;23.90;;;3.38;;
51764;SDS011;37835;53.256;6.456;2023-02-18T14:51:13;21.25;;;3.55;;
51764;SDS011;37835;53.256;6.456;2023-02-18T14:53:43;22.15;;;4.43;;
51764;SDS011;37835;53.256;6.456;2023-02-18T14:56:12;22.00;;;3.22;;
51764;SDS011;37835;53.256;6.456;2023-02-18T14:58:40;23.77;;;3.53;;
51764;SDS011;37835;53.256;6.456;2023-02-18T15:01:19;23.80;;;3.90;;
51764;SDS011;37835;53.256;6.456;2023-02-18T15:03:53;20.15;;;3.63;;
51764;SDS011;37835;53.256;6.456;2023-02-18T15:06:20;21.55;;;3.58;;
51764;SDS011;37835;53.256;6.456;2023-02-18T15:08:46;26.48;;;3.85;;
51764;SDS011;37835;53.256;6.456;2023-02-18T15:11:12;22.85;;;3.47;;
51764;SDS011;37835;53.256;6.456;2023-02-18T15:13:42;24.75;;;3.72;;
51764;SDS011;37835;53.256;6.456;2023-02-18T15:18:56;18.98;;;3.15;;
51764;SDS011;37835;53.256;6.456;2023-02-18T15:21:34;20.90;;;2.75;;
51764;SDS011;37835;53.256;6.456;2023-02-18T15:26:49;21.40;;;4.07;;
51764;SDS011;37835;53.256;6.456;2023-02-18T15:29:26;21.58;;;3.45;;
51764;SDS011;37835;53.256;6.456;2023-02-18T15:31:54;17.40;;;3.92;;
51764;SDS011;37835;53.256;6.456;2023-02-18T15:36:53;30.05;;;4.32;;
51764;SDS011;37835;53.256;6.456;2023-02-18T15:39:19;25.20;;;3.60;;
51764;SDS011;37835;53.256;6.456;2023-02-18T15:41:45;26.42;;;3.72;;
51764;SDS011;37835;53.256;6.456;2023-02-18T15:44:16;19.70;;;3.10;;
51764;SDS011;37835;53.256;6.456;2023-02-18T15:46:46;25.20;;;3.72;;
51764;SDS011;37835;53.256;6.456;2023-02-18T15:49:12;22.73;;;3.00;;
51764;SDS011;37835;53.256;6.456;2023-02-18T15:51:42;28.38;;;3.88;;
51764;SDS011;37835;53.256;6.456;2023-02-18T15:54:18;20.67;;;3.90;;
51764;SDS011;37835;53.256;6.456;2023-02-18T15:56:47;17.90;;;3.72;;
51764;SDS011;37835;53.256;6.456;2023-02-18T15:59:19;31.95;;;4.20;;
51764;SDS011;37835;53.256;6.456;2023-02-18T16:01:52;27.05;;;3.65;;
51764;SDS011;37835;53.256;6.456;2023-02-18T16:04:28;28.80;;;4.55;;
51764;SDS011;37835;53.256;6.456;2023-02-18T16:06:56;22.42;;;3.78;;
51764;SDS011;37835;53.256;6.456;2023-02-18T16:09:31;23.10;;;3.50;;
51764;SDS011;37835;53.256;6.456;2023-02-18T16:11:58;23.10;;;3.63;;
51764;SDS011;37835;53.256;6.456;2023-02-18T16:22:40;24.02;;;3.13;;
51764;SDS011;37835;53.256;6.456;2023-02-18T16:27:48;25.27;;;4.25;;
51764;SDS011;37835;53.256;6.456;2023-02-18T16:30:22;27.70;;;4.47;;
51764;SDS011;37835;53.256;6.456;2023-02-18T16:32:48;24.25;;;4.50;;
51764;SDS011;37835;53.256;6.456;2023-02-18T16:35:14;30.85;;;5.20;;
51764;SDS011;37835;53.256;6.456;2023-02-18T16:37:40;27.67;;;5.40;;
51764;SDS011;37835;53.256;6.456;2023-02-18T16:42:55;29.27;;;4.63;;
51764;SDS011;37835;53.256;6.456;2023-02-18T16:45:23;33.67;;;4.22;;
51764;SDS011;37835;53.256;6.456;2023-02-18T16:48:02;27.33;;;3.88;;
51764;SDS011;37835;53.256;6.456;2023-02-18T16:50:29;24.48;;;3.60;;
51764;SDS011;37835;53.256;6.456;2023-02-18T16:52:56;29.08;;;4.10;;
51764;SDS011;37835;53.256;6.456;2023-02-18T16:55:24;27.10;;;3.63;;
51764;SDS011;37835;53.256;6.456;2023-02-18T16:57:52;19.75;;;3.08;;
51764;SDS011;37835;53.256;6.456;2023-02-18T17:00:19;25.60;;;3.03;;
51764;SDS011;37835;53.256;6.456;2023-02-18T17:02:45;22.35;;;3.35;;
51764;SDS011;37835;53.256;6.456;2023-02-18T17:05:18;19.00;;;3.00;;
51764;SDS011;37835;53.256;6.456;2023-02-18T17:07:48;26.45;;;4.03;;
51764;SDS011;37835;53.256;6.456;2023-02-18T17:10:14;28.67;;;4.13;;
51764;SDS011;37835;53.256;6.456;2023-02-18T17:12:39;24.25;;;2.90;;
51764;SDS011;37835;53.256;6.456;2023-02-18T17:15:25;27.58;;;4.40;;
51764;SDS011;37835;53.256;6.456;2023-02-18T17:17:55;27.10;;;4.22;;
51764;SDS011;37835;53.256;6.456;2023-02-18T17:20:25;37.15;;;4.40;;
51764;SDS011;37835;53.256;6.456;2023-02-18T17:22:52;24.50;;;4.40;;
51764;SDS011;37835;53.256;6.456;2023-02-18T17:25:21;26.02;;;3.67;;
51764;SDS011;37835;53.256;6.456;2023-02-18T17:27:55;30.67;;;3.70;;
51764;SDS011;37835;53.256;6.456;2023-02-18T17:30:21;29.95;;;4.43;;
51764;SDS011;37835;53.256;6.456;2023-02-18T17:32:47;31.52;;;4.20;;
51764;SDS011;37835;53.256;6.456;2023-02-18T17:35:18;24.45;;;4.03;;